sensor_id;sensor_type;location;lat;lon;timestamp;P1;durP1;ratioP1;P2;durP2;ratioP2
70694;SDS011;58269;52.246;21.104;2023-06-14T12:03:53;4.20;;;2.50;;
70694;SDS011;58269;52.246;21.104;2023-06-14T12:06:03;5.50;;;2.10;;
70694;SDS011;58269;52.246;21.104;2023-06-14T12:08:09;2.00;;;1.80;;
70694;SDS011;58269;52.246;21.104;2023-06-14T12:10:12;2.70;;;2.10;;
70694;SDS011;58269;52.246;21.104;2023-06-14T12:12:16;3.70;;;2.30;;
70694;SDS011;58269;52.246;21.104;2023-06-14T12:14:17;3.50;;;2.30;;
70694;SDS011;58269;52.246;21.104;2023-06-14T12:16:19;3.60;;;2.00;;
70694;SDS011;58269;52.246;21.104;2023-06-14T12:18:31;3.00;;;2.60;;
70694;SDS011;58269;52.246;21.104;2023-06-14T12:20:35;3.00;;;2.10;;
70694;SDS011;58269;52.246;21.104;2023-06-14T12:22:38;3.60;;;2.20;;
70694;SDS011;58269;52.246;21.104;2023-06-14T12:24:43;4.60;;;2.30;;
70694;SDS011;58269;52.246;21.104;2023-06-14T12:26:46;3.20;;;2.30;;
70694;SDS011;58269;52.246;21.104;2023-06-14T12:28:48;3.00;;;2.60;;
70694;SDS011;58269;52.246;21.104;2023-06-14T12:30:50;3.20;;;1.90;;
70694;SDS011;58269;52.246;21.104;2023-06-14T12:32:54;3.30;;;2.40;;
70694;SDS011;58269;52.246;21.104;2023-06-14T12:34:55;3.50;;;2.10;;
70694;SDS011;58269;52.246;21.104;2023-06-14T12:36:58;4.10;;;2.30;;
70694;SDS011;58269;52.246;21.104;2023-06-14T12:39:00;3.70;;;2.60;;
70694;SDS011;58269;52.246;21.104;2023-06-14T12:41:02;4.00;;;2.20;;
70694;SDS011;58269;52.246;21.104;2023-06-14T12:43:04;3.80;;;1.80;;
70694;SDS011;58269;52.246;21.104;2023-06-14T12:45:06;4.30;;;2.00;;
70694;SDS011;58269;52.246;21.104;2023-06-14T12:47:08;3.60;;;1.90;;
70694;SDS011;58269;52.246;21.104;2023-06-14T12:49:11;3.40;;;1.80;;
70694;SDS011;58269;52.246;21.104;2023-06-14T12:51:13;2.70;;;1.80;;
70694;SDS011;58269;52.246;21.104;2023-06-14T12:53:15;2.30;;;1.90;;
70694;SDS011;58269;52.246;21.104;2023-06-14T12:55:17;4.30;;;1.90;;
70694;SDS011;58269;52.246;21.104;2023-06-14T12:57:20;6.40;;;2.50;;
70694;SDS011;58269;52.246;21.104;2023-06-14T12:59:22;2.20;;;2.00;;
70694;SDS011;58269;52.246;21.104;2023-06-14T13:01:24;3.00;;;2.40;;
70694;SDS011;58269;52.246;21.104;2023-06-14T13:03:26;5.10;;;2.40;;
70694;SDS011;58269;52.246;21.104;2023-06-14T13:05:28;2.70;;;2.00;;
70694;SDS011;58269;52.246;21.104;2023-06-14T13:07:32;3.30;;;1.80;;
70694;SDS011;58269;52.246;21.104;2023-06-14T13:09:34;2.30;;;2.00;;
70694;SDS011;58269;52.246;21.104;2023-06-14T13:11:36;4.00;;;2.00;;
70694;SDS011;58269;52.246;21.104;2023-06-14T13:13:38;3.60;;;2.20;;
70694;SDS011;58269;52.246;21.104;2023-06-14T13:15:40;3.60;;;2.30;;
70694;SDS011;58269;52.246;21.104;2023-06-14T13:17:42;3.40;;;2.00;;
70694;SDS011;58269;52.246;21.104;2023-06-14T13:19:49;4.40;;;2.10;;
70694;SDS011;58269;52.246;21.104;2023-06-14T13:21:51;2.70;;;2.00;;
70694;SDS011;58269;52.246;21.104;2023-06-14T13:23:53;2.60;;;1.80;;
70694;SDS011;58269;52.246;21.104;2023-06-14T13:25:55;2.50;;;1.80;;
70694;SDS011;58269;52.246;21.104;2023-06-14T13:27:57;2.40;;;2.20;;
70694;SDS011;58269;52.246;21.104;2023-06-14T13:29:59;2.50;;;1.90;;
70694;SDS011;58269;52.246;21.104;2023-06-14T13:32:02;2.80;;;2.00;;
70694;SDS011;58269;52.246;21.104;2023-06-14T13:34:04;2.60;;;2.20;;
70694;SDS011;58269;52.246;21.104;2023-06-14T13:36:07;4.80;;;1.80;;
70694;SDS011;58269;52.246;21.104;2023-06-14T13:38:09;3.50;;;1.90;;
70694;SDS011;58269;52.246;21.104;2023-06-14T13:40:12;3.30;;;2.30;;
70694;SDS011;58269;52.246;21.104;2023-06-14T13:42:14;2.20;;;2.00;;
70694;SDS011;58269;52.246;21.104;2023-06-14T13:44:16;3.00;;;1.90;;
70694;SDS011;58269;52.246;21.104;2023-06-14T13:46:20;3.60;;;1.90;;
70694;SDS011;58269;52.246;21.104;2023-06-14T13:48:21;2.80;;;1.90;;
70694;SDS011;58269;52.246;21.104;2023-06-14T13:50:23;2.10;;;1.90;;
70694;SDS011;58269;52.246;21.104;2023-06-14T13:52:25;2.50;;;1.70;;
70694;SDS011;58269;52.246;21.104;2023-06-14T13:54:28;3.30;;;2.00;;
70694;SDS011;58269;52.246;21.104;2023-06-14T13:56:31;2.30;;;2.10;;
70694;SDS011;58269;52.246;21.104;2023-06-14T13:58:32;4.10;;;2.10;;
70694;SDS011;58269;52.246;21.104;2023-06-14T14:00:35;2.50;;;2.00;;
70694;SDS011;58269;52.246;21.104;2023-06-14T14:02:41;4.10;;;2.20;;
70694;SDS011;58269;52.246;21.104;2023-06-14T14:04:44;1.90;;;1.80;;
70694;SDS011;58269;52.246;21.104;2023-06-14T14:06:52;3.60;;;2.60;;
70694;SDS011;58269;52.246;21.104;2023-06-14T14:08:54;2.40;;;2.20;;
70694;SDS011;58269;52.246;21.104;2023-06-14T14:10:56;7.30;;;2.00;;
70694;SDS011;58269;52.246;21.104;2023-06-14T14:12:58;4.00;;;2.60;;
70694;SDS011;58269;52.246;21.104;2023-06-14T14:15:01;3.50;;;2.40;;
70694;SDS011;58269;52.246;21.104;2023-06-14T14:17:03;4.60;;;2.20;;
70694;SDS011;58269;52.246;21.104;2023-06-14T14:19:05;2.50;;;2.20;;
70694;SDS011;58269;52.246;21.104;2023-06-14T14:21:08;3.90;;;2.80;;
70694;SDS011;58269;52.246;21.104;2023-06-14T14:23:11;3.50;;;2.10;;
70694;SDS011;58269;52.246;21.104;2023-06-14T14:25:13;3.40;;;2.20;;
70694;SDS011;58269;52.246;21.104;2023-06-14T14:27:15;2.90;;;2.20;;
70694;SDS011;58269;52.246;21.104;2023-06-14T14:29:17;4.20;;;2.90;;
70694;SDS011;58269;52.246;21.104;2023-06-14T14:31:19;3.90;;;2.80;;
70694;SDS011;58269;52.246;21.104;2023-06-14T14:33:21;2.80;;;2.60;;
70694;SDS011;58269;52.246;21.104;2023-06-14T14:35:23;6.90;;;2.60;;
70694;SDS011;58269;52.246;21.104;2023-06-14T14:37:27;3.80;;;2.60;;
70694;SDS011;58269;52.246;21.104;2023-06-14T14:39:29;3.00;;;2.40;;
70694;SDS011;58269;52.246;21.104;2023-06-14T14:41:32;5.60;;;2.30;;
70694;SDS011;58269;52.246;21.104;2023-06-14T14:43:34;4.10;;;2.50;;
70694;SDS011;58269;52.246;21.104;2023-06-14T14:45:35;3.00;;;2.20;;
70694;SDS011;58269;52.246;21.104;2023-06-14T14:47:37;2.10;;;1.90;;
70694;SDS011;58269;52.246;21.104;2023-06-14T14:49:40;6.30;;;2.60;;
70694;SDS011;58269;52.246;21.104;2023-06-14T14:51:43;2.60;;;2.00;;
70694;SDS011;58269;52.246;21.104;2023-06-14T14:53:45;3.50;;;2.20;;
70694;SDS011;58269;52.246;21.104;2023-06-14T14:55:47;3.90;;;2.10;;
70694;SDS011;58269;52.246;21.104;2023-06-14T14:57:49;2.30;;;1.70;;
70694;SDS011;58269;52.246;21.104;2023-06-14T14:59:51;3.90;;;2.20;;
70694;SDS011;58269;52.246;21.104;2023-06-14T15:01:53;2.50;;;2.10;;
70694;SDS011;58269;52.246;21.104;2023-06-14T15:03:55;4.00;;;1.90;;
70694;SDS011;58269;52.246;21.104;2023-06-14T15:05:56;2.90;;;2.00;;
70694;SDS011;58269;52.246;21.104;2023-06-14T15:07:59;4.40;;;2.20;;
70694;SDS011;58269;52.246;21.104;2023-06-14T15:10:01;2.40;;;2.20;;
70694;SDS011;58269;52.246;21.104;2023-06-14T15:12:03;2.40;;;2.20;;
70694;SDS011;58269;52.246;21.104;2023-06-14T15:14:05;3.30;;;2.10;;
70694;SDS011;58269;52.246;21.104;2023-06-14T15:16:07;3.30;;;2.40;;
70694;SDS011;58269;52.246;21.104;2023-06-14T15:18:09;3.50;;;2.30;;
70694;SDS011;58269;52.246;21.104;2023-06-14T15:20:11;3.40;;;2.20;;
70694;SDS011;58269;52.246;21.104;2023-06-14T15:22:15;3.60;;;2.20;;
70694;SDS011;58269;52.246;21.104;2023-06-14T15:24:17;4.30;;;2.20;;
70694;SDS011;58269;52.246;21.104;2023-06-14T15:26:20;3.20;;;2.50;;
70694;SDS011;58269;52.246;21.104;2023-06-14T15:28:22;3.10;;;2.10;;
70694;SDS011;58269;52.246;21.104;2023-06-14T15:30:25;5.40;;;2.70;;
70694;SDS011;58269;52.246;21.104;2023-06-14T15:32:27;2.70;;;2.50;;
70694;SDS011;58269;52.246;21.104;2023-06-14T15:34:29;4.60;;;2.70;;
70694;SDS011;58269;52.246;21.104;2023-06-14T15:36:31;3.20;;;2.90;;
70694;SDS011;58269;52.246;21.104;2023-06-14T15:38:33;4.90;;;3.40;;
70694;SDS011;58269;52.246;21.104;2023-06-14T15:40:35;5.50;;;2.90;;
70694;SDS011;58269;52.246;21.104;2023-06-14T15:42:37;3.20;;;2.90;;
70694;SDS011;58269;52.246;21.104;2023-06-14T15:44:39;4.40;;;2.90;;
70694;SDS011;58269;52.246;21.104;2023-06-14T15:46:43;4.70;;;2.80;;
70694;SDS011;58269;52.246;21.104;2023-06-14T15:48:45;3.90;;;2.70;;
70694;SDS011;58269;52.246;21.104;2023-06-14T15:50:47;2.80;;;2.60;;
70694;SDS011;58269;52.246;21.104;2023-06-14T15:52:49;2.80;;;2.60;;
70694;SDS011;58269;52.246;21.104;2023-06-14T15:54:50;5.40;;;3.00;;
70694;SDS011;58269;52.246;21.104;2023-06-14T15:56:52;3.90;;;3.10;;
70694;SDS011;58269;52.246;21.104;2023-06-14T15:58:55;3.70;;;3.00;;
70694;SDS011;58269;52.246;21.104;2023-06-14T16:00:57;4.40;;;2.60;;
70694;SDS011;58269;52.246;21.104;2023-06-14T16:02:59;3.50;;;3.10;;
70694;SDS011;58269;52.246;21.104;2023-06-14T16:05:01;3.70;;;3.10;;
70694;SDS011;58269;52.246;21.104;2023-06-14T16:07:03;4.70;;;3.50;;
70694;SDS011;58269;52.246;21.104;2023-06-14T16:09:05;4.70;;;3.60;;
70694;SDS011;58269;52.246;21.104;2023-06-14T16:11:07;3.90;;;3.40;;
70694;SDS011;58269;52.246;21.104;2023-06-14T16:13:09;5.60;;;3.60;;
70694;SDS011;58269;52.246;21.104;2023-06-14T16:15:11;5.30;;;3.30;;
70694;SDS011;58269;52.246;21.104;2023-06-14T16:17:13;6.90;;;3.70;;
70694;SDS011;58269;52.246;21.104;2023-06-14T16:19:15;4.80;;;3.50;;
70694;SDS011;58269;52.246;21.104;2023-06-14T16:21:17;5.70;;;3.30;;
70694;SDS011;58269;52.246;21.104;2023-06-14T16:23:19;3.50;;;3.20;;
70694;SDS011;58269;52.246;21.104;2023-06-14T16:25:21;4.30;;;3.50;;
70694;SDS011;58269;52.246;21.104;2023-06-14T16:27:23;5.60;;;3.50;;
70694;SDS011;58269;52.246;21.104;2023-06-14T16:29:25;5.30;;;4.20;;
70694;SDS011;58269;52.246;21.104;2023-06-14T16:31:27;6.50;;;4.10;;
70694;SDS011;58269;52.246;21.104;2023-06-14T16:33:29;5.00;;;3.80;;
70694;SDS011;58269;52.246;21.104;2023-06-14T16:35:31;5.50;;;3.40;;
70694;SDS011;58269;52.246;21.104;2023-06-14T16:37:33;3.70;;;3.30;;
70694;SDS011;58269;52.246;21.104;2023-06-14T16:39:35;5.10;;;3.60;;
70694;SDS011;58269;52.246;21.104;2023-06-14T16:41:37;5.30;;;3.70;;
70694;SDS011;58269;52.246;21.104;2023-06-14T16:43:39;4.40;;;4.00;;
70694;SDS011;58269;52.246;21.104;2023-06-14T16:45:41;5.30;;;3.80;;
70694;SDS011;58269;52.246;21.104;2023-06-14T16:47:43;3.90;;;3.60;;
70694;SDS011;58269;52.246;21.104;2023-06-14T16:49:45;6.00;;;3.50;;
70694;SDS011;58269;52.246;21.104;2023-06-14T16:51:47;5.40;;;3.90;;
70694;SDS011;58269;52.246;21.104;2023-06-14T16:53:49;5.40;;;4.10;;
70694;SDS011;58269;52.246;21.104;2023-06-14T16:55:53;5.00;;;4.00;;
70694;SDS011;58269;52.246;21.104;2023-06-14T16:57:54;4.50;;;3.60;;
70694;SDS011;58269;52.246;21.104;2023-06-14T16:59:56;5.20;;;3.90;;
70694;SDS011;58269;52.246;21.104;2023-06-14T17:02:03;6.70;;;3.60;;
70694;SDS011;58269;52.246;21.104;2023-06-14T17:04:05;5.90;;;4.30;;
70694;SDS011;58269;52.246;21.104;2023-06-14T17:06:07;5.80;;;4.20;;
70694;SDS011;58269;52.246;21.104;2023-06-14T17:08:09;5.00;;;4.50;;
70694;SDS011;58269;52.246;21.104;2023-06-14T17:10:11;5.20;;;4.20;;
70694;SDS011;58269;52.246;21.104;2023-06-14T17:12:13;5.00;;;4.20;;
70694;SDS011;58269;52.246;21.104;2023-06-14T17:14:14;7.30;;;4.30;;
70694;SDS011;58269;52.246;21.104;2023-06-14T17:16:17;7.90;;;4.00;;
70694;SDS011;58269;52.246;21.104;2023-06-14T17:18:19;4.70;;;4.30;;
70694;SDS011;58269;52.246;21.104;2023-06-14T17:20:20;5.40;;;4.20;;
70694;SDS011;58269;52.246;21.104;2023-06-14T17:22:23;6.30;;;4.10;;
70694;SDS011;58269;52.246;21.104;2023-06-14T17:24:25;6.60;;;4.70;;
70694;SDS011;58269;52.246;21.104;2023-06-14T17:26:27;5.40;;;4.30;;
70694;SDS011;58269;52.246;21.104;2023-06-14T17:28:29;4.60;;;4.10;;
70694;SDS011;58269;52.246;21.104;2023-06-14T17:30:31;5.30;;;4.30;;
70694;SDS011;58269;52.246;21.104;2023-06-14T17:32:33;5.00;;;4.60;;
70694;SDS011;58269;52.246;21.104;2023-06-14T17:34:35;6.80;;;4.00;;
70694;SDS011;58269;52.246;21.104;2023-06-14T17:36:37;4.50;;;4.00;;
70694;SDS011;58269;52.246;21.104;2023-06-14T17:38:39;7.60;;;4.30;;
70694;SDS011;58269;52.246;21.104;2023-06-14T17:40:41;6.00;;;4.50;;
70694;SDS011;58269;52.246;21.104;2023-06-14T17:42:43;5.00;;;4.20;;
70694;SDS011;58269;52.246;21.104;2023-06-14T17:44:45;7.20;;;3.90;;
70694;SDS011;58269;52.246;21.104;2023-06-14T17:46:47;4.40;;;4.00;;
70694;SDS011;58269;52.246;21.104;2023-06-14T17:48:49;7.00;;;4.20;;
70694;SDS011;58269;52.246;21.104;2023-06-14T17:50:51;6.80;;;4.70;;
70694;SDS011;58269;52.246;21.104;2023-06-14T17:52:53;5.00;;;4.60;;
70694;SDS011;58269;52.246;21.104;2023-06-14T17:54:56;6.50;;;4.10;;
70694;SDS011;58269;52.246;21.104;2023-06-14T17:56:58;8.30;;;4.60;;
70694;SDS011;58269;52.246;21.104;2023-06-14T17:59:00;5.20;;;4.60;;
70694;SDS011;58269;52.246;21.104;2023-06-14T18:01:06;8.00;;;4.40;;
70694;SDS011;58269;52.246;21.104;2023-06-14T18:03:47;5.10;;;4.00;;
70694;SDS011;58269;52.246;21.104;2023-06-14T18:10:24;5.00;;;4.00;;
70694;SDS011;58269;52.246;21.104;2023-06-14T18:12:41;5.50;;;3.70;;
70694;SDS011;58269;52.246;21.104;2023-06-14T18:19:59;4.70;;;3.60;;
70694;SDS011;58269;52.246;21.104;2023-06-14T18:31:09;4.40;;;3.90;;
70694;SDS011;58269;52.246;21.104;2023-06-14T18:34:21;9.20;;;4.30;;
70694;SDS011;58269;52.246;21.104;2023-06-14T18:45:48;6.00;;;5.20;;
70694;SDS011;58269;52.246;21.104;2023-06-14T18:48:53;7.40;;;5.10;;
70694;SDS011;58269;52.246;21.104;2023-06-14T18:55:14;5.90;;;5.00;;
70694;SDS011;58269;52.246;21.104;2023-06-14T19:00:26;6.20;;;5.40;;
70694;SDS011;58269;52.246;21.104;2023-06-14T19:02:50;5.70;;;5.10;;
70694;SDS011;58269;52.246;21.104;2023-06-14T19:08:23;7.30;;;6.40;;
70694;SDS011;58269;52.246;21.104;2023-06-14T19:20:40;8.40;;;6.10;;
70694;SDS011;58269;52.246;21.104;2023-06-14T19:29:08;9.40;;;6.70;;
70694;SDS011;58269;52.246;21.104;2023-06-14T19:31:35;7.80;;;7.00;;
70694;SDS011;58269;52.246;21.104;2023-06-14T19:40:46;9.00;;;8.10;;
70694;SDS011;58269;52.246;21.104;2023-06-14T19:43:03;10.30;;;8.20;;
70694;SDS011;58269;52.246;21.104;2023-06-14T19:46:26;10.60;;;8.20;;
70694;SDS011;58269;52.246;21.104;2023-06-14T19:51:41;8.80;;;7.80;;
70694;SDS011;58269;52.246;21.104;2023-06-14T19:56:47;9.10;;;7.80;;
70694;SDS011;58269;52.246;21.104;2023-06-14T19:59:12;9.40;;;8.10;;
70694;SDS011;58269;52.246;21.104;2023-06-14T20:05:26;8.40;;;7.30;;
70694;SDS011;58269;52.246;21.104;2023-06-14T20:07:38;9.60;;;7.40;;
70694;SDS011;58269;52.246;21.104;2023-06-14T20:09:46;9.50;;;7.70;;
70694;SDS011;58269;52.246;21.104;2023-06-14T20:12:02;7.60;;;6.70;;
70694;SDS011;58269;52.246;21.104;2023-06-14T20:14:25;11.90;;;6.90;;
70694;SDS011;58269;52.246;21.104;2023-06-14T20:19:48;7.90;;;6.50;;
70694;SDS011;58269;52.246;21.104;2023-06-14T20:25:57;11.80;;;7.10;;
70694;SDS011;58269;52.246;21.104;2023-06-14T20:28:25;9.30;;;7.80;;
70694;SDS011;58269;52.246;21.104;2023-06-14T20:30:56;8.30;;;7.10;;
70694;SDS011;58269;52.246;21.104;2023-06-14T20:33:23;10.80;;;8.00;;
70694;SDS011;58269;52.246;21.104;2023-06-14T20:35:51;9.70;;;7.60;;
70694;SDS011;58269;52.246;21.104;2023-06-14T20:40:40;9.60;;;7.00;;
70694;SDS011;58269;52.246;21.104;2023-06-14T20:46:00;10.90;;;6.70;;
70694;SDS011;58269;52.246;21.104;2023-06-14T20:50:50;8.00;;;6.90;;
70694;SDS011;58269;52.246;21.104;2023-06-14T20:53:45;10.90;;;8.30;;
70694;SDS011;58269;52.246;21.104;2023-06-14T20:56:00;10.60;;;8.90;;
70694;SDS011;58269;52.246;21.104;2023-06-14T21:00:54;11.00;;;9.90;;
70694;SDS011;58269;52.246;21.104;2023-06-14T21:03:30;14.00;;;11.60;;
70694;SDS011;58269;52.246;21.104;2023-06-14T21:05:48;13.90;;;11.60;;
70694;SDS011;58269;52.246;21.104;2023-06-14T21:10:31;13.60;;;10.90;;
70694;SDS011;58269;52.246;21.104;2023-06-14T21:12:44;11.70;;;10.50;;
70694;SDS011;58269;52.246;21.104;2023-06-14T21:14:57;14.20;;;10.70;;
70694;SDS011;58269;52.246;21.104;2023-06-14T21:20:49;11.80;;;9.80;;
70694;SDS011;58269;52.246;21.104;2023-06-14T21:23:31;13.40;;;10.50;;
70694;SDS011;58269;52.246;21.104;2023-06-14T21:28:52;11.90;;;9.40;;
70694;SDS011;58269;52.246;21.104;2023-06-14T21:41:21;10.60;;;7.90;;
70694;SDS011;58269;52.246;21.104;2023-06-14T21:44:00;12.30;;;8.60;;
70694;SDS011;58269;52.246;21.104;2023-06-14T21:49:29;13.40;;;9.10;;
70694;SDS011;58269;52.246;21.104;2023-06-14T21:55:08;11.40;;;8.40;;
70694;SDS011;58269;52.246;21.104;2023-06-14T22:00:11;13.50;;;8.90;;
70694;SDS011;58269;52.246;21.104;2023-06-14T22:06:37;11.90;;;8.60;;
70694;SDS011;58269;52.246;21.104;2023-06-14T22:09:07;9.90;;;8.00;;
70694;SDS011;58269;52.246;21.104;2023-06-14T22:11:50;9.60;;;7.30;;
70694;SDS011;58269;52.246;21.104;2023-06-14T22:13:57;7.90;;;7.00;;
70694;SDS011;58269;52.246;21.104;2023-06-14T22:16:02;12.00;;;7.10;;
70694;SDS011;58269;52.246;21.104;2023-06-14T22:22:48;8.60;;;6.90;;
70694;SDS011;58269;52.246;21.104;2023-06-14T22:26:11;10.30;;;7.00;;
70694;SDS011;58269;52.246;21.104;2023-06-14T22:28:38;9.60;;;7.20;;
70694;SDS011;58269;52.246;21.104;2023-06-14T22:31:30;7.80;;;6.70;;
70694;SDS011;58269;52.246;21.104;2023-06-14T22:38:06;7.50;;;6.30;;
70694;SDS011;58269;52.246;21.104;2023-06-14T22:40:32;7.60;;;5.80;;
70694;SDS011;58269;52.246;21.104;2023-06-14T22:42:33;8.40;;;7.20;;
70694;SDS011;58269;52.246;21.104;2023-06-14T22:45:29;8.60;;;6.70;;
70694;SDS011;58269;52.246;21.104;2023-06-14T22:47:58;8.30;;;6.80;;
70694;SDS011;58269;52.246;21.104;2023-06-14T22:50:23;9.30;;;7.10;;
70694;SDS011;58269;52.246;21.104;2023-06-14T22:52:41;9.50;;;7.20;;
70694;SDS011;58269;52.246;21.104;2023-06-14T22:55:00;10.80;;;6.60;;
70694;SDS011;58269;52.246;21.104;2023-06-14T22:57:27;10.50;;;7.00;;
70694;SDS011;58269;52.246;21.104;2023-06-14T23:04:56;7.90;;;6.80;;
70694;SDS011;58269;52.246;21.104;2023-06-14T23:07:59;9.50;;;7.70;;
70694;SDS011;58269;52.246;21.104;2023-06-14T23:10:08;8.50;;;7.60;;
70694;SDS011;58269;52.246;21.104;2023-06-14T23:12:22;9.90;;;8.70;;
70694;SDS011;58269;52.246;21.104;2023-06-14T23:14:48;10.20;;;8.40;;
70694;SDS011;58269;52.246;21.104;2023-06-14T23:17:10;10.40;;;9.00;;
70694;SDS011;58269;52.246;21.104;2023-06-14T23:19:43;12.40;;;8.90;;
70694;SDS011;58269;52.246;21.104;2023-06-14T23:22:02;10.60;;;8.10;;
70694;SDS011;58269;52.246;21.104;2023-06-14T23:24:28;9.20;;;8.00;;
70694;SDS011;58269;52.246;21.104;2023-06-14T23:26:37;8.50;;;7.60;;
70694;SDS011;58269;52.246;21.104;2023-06-14T23:28:48;11.20;;;7.40;;
70694;SDS011;58269;52.246;21.104;2023-06-14T23:30:57;10.20;;;7.90;;
70694;SDS011;58269;52.246;21.104;2023-06-14T23:33:23;11.80;;;8.00;;
70694;SDS011;58269;52.246;21.104;2023-06-14T23:35:38;10.60;;;8.50;;
70694;SDS011;58269;52.246;21.104;2023-06-14T23:37:52;11.30;;;7.90;;
70694;SDS011;58269;52.246;21.104;2023-06-14T23:40:06;9.00;;;7.60;;
70694;SDS011;58269;52.246;21.104;2023-06-14T23:47:59;9.10;;;7.50;;
70694;SDS011;58269;52.246;21.104;2023-06-14T23:50:44;10.10;;;7.20;;
70694;SDS011;58269;52.246;21.104;2023-06-14T23:56:55;13.20;;;9.20;;
70694;SDS011;58269;52.246;21.104;2023-06-14T23:59:01;22.50;;;14.00;;
